Time;durP1;ratioP1;P1;durP2;ratioP2;P2;SDS_P1;SDS_P2;PMS_P1;PMS_P2;Temp;Humidity;BMP_temperature;BMP_pressure;BME280_temperature;BME280_humidity;BME280_pressure;Samples;Min_cycle;Max_cycle;Signal;HPM_P1;HPM_P2
2021/03/31 00:01:05;;;;;;;15.20;12.00;;;8.10;72.90;;;;;;5026589;28;20068;-62
2021/03/31 00:03:36;;;;;;;15.48;12.27;;;8.20;72.90;;;;;;4997111;28;20067;-63
2021/03/31 00:06:15;;;;;;;20.95;14.00;;;8.00;72.80;;;;;;5026802;28;20763;-62
2021/03/31 00:08:46;;;;;;;19.40;12.88;;;8.10;73.20;;;;;;5026683;28;20065;-62
2021/03/31 00:11:17;;;;;;;17.40;12.45;;;8.10;73.00;;;;;;5026214;28;20124;-61
2021/03/31 00:13:49;;;;;;;15.38;12.63;;;8.10;73.10;;;;;;5009288;28;20520;-62
2021/03/31 00:16:20;;;;;;;15.60;12.10;;;8.10;72.60;;;;;;5025755;28;20052;-56
2021/03/31 00:18:50;;;;;;;17.15;12.75;;;8.00;73.50;;;;;;5026741;28;20110;-60
2021/03/31 00:21:22;;;;;;;17.17;12.18;;;8.10;73.50;;;;;;5026675;28;20528;-61
2021/03/31 00:23:54;;;;;;;16.30;12.57;;;8.00;74.00;;;;;;5026588;28;20049;-61
2021/03/31 00:26:34;;;;;;;18.60;12.20;;;8.00;73.00;;;;;;5012491;28;20108;-61
2021/03/31 00:29:05;;;;;;;14.43;11.25;;;7.90;73.40;;;;;;5027205;28;20057;-62
2021/03/31 00:31:41;;;;;;;16.30;11.45;;;7.80;73.30;;;;;;5010080;28;20049;-64
2021/03/31 00:34:15;;;;;;;14.82;12.30;;;7.80;73.60;;;;;;5026264;28;20053;-62
2021/03/31 00:36:46;;;;;;;17.25;13.00;;;7.70;73.90;;;;;;5025780;28;20049;-61
2021/03/31 00:39:14;;;;;;;17.08;12.02;;;7.70;74.90;;;;;;5025799;28;20087;-63
2021/03/31 00:41:50;;;;;;;17.90;12.52;;;7.70;74.80;;;;;;5026594;28;20648;-61
2021/03/31 00:44:20;;;;;;;20.25;13.02;;;7.60;74.60;;;;;;5025584;28;20397;-58
2021/03/31 00:46:57;;;;;;;17.55;11.50;;;7.60;75.40;;;;;;5026081;28;20049;-61
2021/03/31 00:49:30;;;;;;;16.92;12.07;;;7.50;75.70;;;;;;5026304;28;20111;-59
2021/03/31 00:51:58;;;;;;;17.10;12.05;;;7.40;75.30;;;;;;5028533;28;20049;-60
2021/03/31 00:54:31;;;;;;;14.50;11.25;;;7.40;75.60;;;;;;5025421;28;20049;-60
2021/03/31 00:56:57;;;;;;;16.52;10.93;;;7.30;76.00;;;;;;5026188;28;20056;-62
2021/03/31 00:59:33;;;;;;;16.35;12.82;;;7.30;75.50;;;;;;5026424;28;20045;-63
2021/03/31 01:02:09;;;;;;;13.82;10.95;;;7.40;76.60;;;;;;5026278;28;20065;-58
2021/03/31 01:04:41;;;;;;;15.48;12.07;;;7.40;77.10;;;;;;5025605;28;20041;-60
2021/03/31 01:07:07;;;;;;;15.10;10.75;;;7.30;77.40;;;;;;5024555;28;20065;-63
2021/03/31 01:09:37;;;;;;;15.05;11.25;;;7.30;76.20;;;;;;5026121;28;20088;-60
2021/03/31 01:12:35;;;;;;;16.10;12.43;;;7.20;76.70;;;;;;5026729;28;20057;-60
2021/03/31 01:15:11;;;;;;;14.52;12.00;;;7.20;76.90;;;;;;5025795;28;20498;-61
2021/03/31 01:18:00;;;;;;;15.88;12.18;;;7.20;76.90;;;;;;5026784;28;20057;-60
2021/03/31 01:20:35;;;;;;;15.02;12.68;;;7.20;76.50;;;;;;5026738;28;20049;-58
2021/03/31 01:23:29;;;;;;;13.98;11.48;;;7.20;77.00;;;;;;5019676;28;20049;-62
2021/03/31 01:26:07;;;;;;;;;;;7.20;77.00;;;;;;5029844;28;20049;-62
2021/03/31 01:29:14;;;;;;;15.20;11.85;;;7.20;77.20;;;;;;5030604;28;19925;-58
2021/03/31 01:31:52;;;;;;;16.65;13.77;;;7.20;75.20;;;;;;4964598;28;20047;-60
2021/03/31 01:34:39;;;;;;;16.65;14.50;;;7.10;75.90;;;;;;4968424;28;20178;-60
2021/03/31 01:37:32;;;;;;;18.20;12.73;;;7.10;77.20;;;;;;4970433;28;20136;-61
2021/03/31 01:40:07;;;;;;;13.82;12.32;;;7.10;76.50;;;;;;4965986;28;20058;-64
2021/03/31 01:42:36;;;;;;;18.70;13.95;;;6.90;76.30;;;;;;4966172;28;20054;-61
2021/03/31 01:45:13;;;;;;;19.25;14.13;;;6.90;76.00;;;;;;4966132;28;20128;-63
2021/03/31 01:47:48;;;;;;;18.52;13.50;;;7.00;77.40;;;;;;4968490;28;20078;-62
2021/03/31 01:50:17;;;;;;;17.70;14.02;;;6.90;77.00;;;;;;4967819;28;20051;-63
2021/03/31 01:52:48;;;;;;;18.75;14.35;;;6.90;76.80;;;;;;4968272;28;20109;-63
2021/03/31 01:55:18;;;;;;;15.75;13.13;;;6.90;76.60;;;;;;4967878;28;20444;-62
2021/03/31 01:57:47;;;;;;;20.17;14.73;;;6.80;76.30;;;;;;4953940;28;20047;-61
2021/03/31 02:00:19;;;;;;;16.52;12.88;;;6.80;77.20;;;;;;4968307;28;20385;-57
2021/03/31 02:02:55;;;;;;;17.02;13.30;;;6.80;76.70;;;;;;4959081;28;20059;-62
2021/03/31 02:05:32;;;;;;;17.00;13.90;;;6.70;76.80;;;;;;4970270;28;20082;-60
2021/03/31 02:08:07;;;;;;;16.58;13.93;;;6.70;77.20;;;;;;4976269;28;20046;-61
2021/03/31 02:10:37;;;;;;;17.30;13.07;;;6.70;77.60;;;;;;5009758;28;20046;-59
2021/03/31 02:13:15;;;;;;;15.43;13.82;;;6.60;77.00;;;;;;5010064;28;20045;-63
2021/03/31 02:15:47;;;;;;;18.88;14.30;;;6.60;77.10;;;;;;5010545;28;20141;-61
2021/03/31 02:18:22;;;;;;;18.90;13.75;;;6.60;77.90;;;;;;5010574;28;20107;-61
2021/03/31 02:21:04;;;;;;;17.48;13.15;;;6.50;78.10;;;;;;5009527;28;20073;-63
2021/03/31 02:23:36;;;;;;;17.30;13.05;;;6.50;78.40;;;;;;5009909;28;20177;-61
2021/03/31 02:26:10;;;;;;;15.65;13.95;;;6.50;77.60;;;;;;5009204;28;20430;-61
2021/03/31 02:28:39;;;;;;;15.68;13.05;;;6.50;78.40;;;;;;5009760;28;20591;-62
2021/03/31 02:31:11;;;;;;;16.70;12.98;;;6.40;78.60;;;;;;5009826;28;20045;-57
2021/03/31 02:33:46;;;;;;;15.38;13.05;;;6.40;79.00;;;;;;5008484;28;20068;-58
2021/03/31 02:36:20;;;;;;;16.90;13.23;;;6.40;79.30;;;;;;5001092;28;20046;-62
2021/03/31 02:38:52;;;;;;;16.33;13.43;;;6.40;79.40;;;;;;5009302;28;20049;-63
2021/03/31 02:41:28;;;;;;;16.70;13.13;;;6.40;79.80;;;;;;5009160;28;20058;-61
2021/03/31 02:43:58;;;;;;;19.15;13.70;;;6.40;80.20;;;;;;5014588;28;20136;-61
2021/03/31 02:46:33;;;;;;;15.18;11.73;;;6.40;80.30;;;;;;5008727;28;20050;-60
2021/03/31 02:49:08;;;;;;;17.67;12.55;;;6.40;80.00;;;;;;5009706;28;20061;-58
2021/03/31 02:51:42;;;;;;;19.98;14.15;;;6.40;80.60;;;;;;5007666;28;20588;-61
2021/03/31 02:54:12;;;;;;;17.42;13.73;;;6.30;80.50;;;;;;5011099;28;20411;-63
2021/03/31 02:56:45;;;;;;;22.63;13.68;;;6.30;79.60;;;;;;5008446;28;20112;-59
2021/03/31 02:59:17;;;;;;;21.25;15.65;;;6.30;80.00;;;;;;5010467;28;20133;-60
2021/03/31 03:01:50;;;;;;;18.85;13.35;;;6.30;80.10;;;;;;5012977;28;20065;-60
2021/03/31 03:04:24;;;;;;;17.52;13.43;;;6.20;79.40;;;;;;5036085;28;20045;-61
2021/03/31 03:06:58;;;;;;;22.88;16.67;;;6.10;79.10;;;;;;5028925;28;20057;-57
2021/03/31 03:09:29;;;;;;;21.05;15.18;;;6.20;79.20;;;;;;5028226;28;20050;-63
2021/03/31 03:12:02;;;;;;;20.15;15.18;;;6.10;79.10;;;;;;5028689;28;20041;-62
2021/03/31 03:14:42;;;;;;;17.67;14.63;;;6.10;79.30;;;;;;5033534;28;20055;-62
2021/03/31 03:17:14;;;;;;;19.80;16.02;;;6.00;79.30;;;;;;5028440;28;20065;-62
2021/03/31 03:19:43;;;;;;;16.00;13.45;;;6.00;79.70;;;;;;5029777;28;20049;-63
2021/03/31 03:22:15;;;;;;;18.10;14.52;;;6.00;80.00;;;;;;5030160;28;20049;-60
2021/03/31 03:24:50;;;;;;;18.33;14.35;;;6.00;80.00;;;;;;5029421;28;20049;-62
2021/03/31 03:27:30;;;;;;;20.25;15.65;;;5.90;80.10;;;;;;5030511;28;20038;-58
2021/03/31 03:30:06;;;;;;;17.50;15.25;;;5.80;80.40;;;;;;5029481;28;20048;-60
2021/03/31 03:32:35;;;;;;;16.92;13.75;;;5.80;80.40;;;;;;5034219;28;20065;-63
2021/03/31 03:35:12;;;;;;;19.30;15.07;;;5.80;80.60;;;;;;5028867;28;20049;-59
2021/03/31 03:37:41;;;;;;;21.70;14.35;;;5.70;80.80;;;;;;5022771;28;20046;-61
2021/03/31 03:40:22;;;;;;;19.63;15.23;;;5.70;80.40;;;;;;5027284;28;20156;-59
2021/03/31 03:42:57;;;;;;;20.30;15.75;;;5.80;81.40;;;;;;5017277;28;20053;-61
2021/03/31 03:45:34;;;;;;;20.70;15.70;;;5.70;81.20;;;;;;5031575;28;20107;-60
2021/03/31 03:48:08;;;;;;;19.30;15.75;;;5.70;81.70;;;;;;5027407;28;20060;-60
2021/03/31 03:50:39;;;;;;;20.65;15.07;;;5.70;81.60;;;;;;5027660;28;20041;-59
2021/03/31 03:53:11;;;;;;;20.08;15.90;;;5.70;81.50;;;;;;5027944;28;20418;-57
2021/03/31 03:55:40;;;;;;;16.45;14.32;;;5.70;81.80;;;;;;5032180;28;20548;-59
2021/03/31 03:58:13;;;;;;;20.90;17.38;;;5.70;81.50;;;;;;5025635;28;20045;-60
2021/03/31 04:00:44;;;;;;;19.13;16.45;;;5.70;81.50;;;;;;5027523;28;20103;-62
2021/03/31 04:03:16;;;;;;;21.00;16.27;;;5.70;80.60;;;;;;5027609;28;20056;-62
2021/03/31 04:05:47;;;;;;;21.70;15.93;;;5.70;80.30;;;;;;5027207;28;20049;-57
2021/03/31 04:08:16;;;;;;;20.30;16.80;;;5.70;80.10;;;;;;5026703;28;20308;-61
2021/03/31 04:10:51;;;;;;;23.75;17.98;;;5.70;80.20;;;;;;5026172;28;20064;-62
2021/03/31 04:13:21;;;;;;;22.35;17.05;;;5.80;80.20;;;;;;5024108;28;20544;-59
2021/03/31 04:16:10;;;;;;;26.90;19.25;;;5.70;79.80;;;;;;5027930;28;20049;-62
2021/03/31 04:18:47;;;;;;;21.20;17.95;;;5.70;80.60;;;;;;5023897;28;20052;-58
2021/03/31 04:21:25;;;;;;;27.73;19.02;;;5.60;80.30;;;;;;5026612;28;20038;-62
2021/03/31 04:23:57;;;;;;;23.83;18.15;;;5.70;80.80;;;;;;5009096;28;20045;-57
2021/03/31 04:26:29;;;;;;;22.73;16.27;;;5.60;80.70;;;;;;5026484;28;20057;-61
2021/03/31 04:28:58;;;;;;;23.15;17.83;;;5.60;81.40;;;;;;5026442;28;20106;-61
2021/03/31 04:31:32;;;;;;;24.73;18.92;;;5.60;80.70;;;;;;5014640;28;20045;-60
2021/03/31 04:34:07;;;;;;;24.17;17.60;;;5.60;81.00;;;;;;5024503;28;20049;-61
2021/03/31 04:36:36;;;;;;;21.05;17.45;;;5.50;80.90;;;;;;5026799;28;20056;-60
2021/03/31 04:39:06;;;;;;;23.25;17.45;;;5.50;81.20;;;;;;5025772;28;20057;-60
2021/03/31 04:41:46;;;;;;;22.75;18.40;;;5.50;80.80;;;;;;5025673;28;20844;-61
2021/03/31 04:44:16;;;;;;;20.08;17.02;;;5.50;81.60;;;;;;5026343;28;20060;-61
2021/03/31 04:46:48;;;;;;;22.20;18.33;;;5.40;80.70;;;;;;5025360;28;20103;-59
2021/03/31 04:49:20;;;;;;;24.83;17.23;;;5.40;81.40;;;;;;5025511;28;20077;-62
2021/03/31 04:51:55;;;;;;;25.52;18.60;;;5.30;81.10;;;;;;5026426;28;20493;-60
2021/03/31 04:54:27;;;;;;;26.10;16.95;;;5.40;81.50;;;;;;5025352;28;20050;-58
2021/03/31 04:57:01;;;;;;;23.42;18.23;;;5.40;81.30;;;;;;5025003;28;20097;-60
2021/03/31 04:59:37;;;;;;;23.95;18.73;;;5.30;81.20;;;;;;5023078;28;20561;-59
2021/03/31 05:02:12;;;;;;;24.55;17.17;;;5.40;81.70;;;;;;5022205;28;20068;-56
2021/03/31 05:04:38;;;;;;;28.42;19.33;;;5.40;81.60;;;;;;5025369;28;20049;-60
2021/03/31 05:07:16;;;;;;;25.27;18.40;;;5.40;81.40;;;;;;5025537;28;20052;-60
2021/03/31 05:09:48;;;;;;;23.58;18.30;;;5.30;81.40;;;;;;5024982;28;20053;-59
2021/03/31 05:12:19;;;;;;;23.57;18.53;;;5.30;81.10;;;;;;5026090;28;20045;-61
2021/03/31 05:14:56;;;;;;;24.75;18.17;;;5.40;81.60;;;;;;5025709;28;20056;-61
2021/03/31 05:17:25;;;;;;;23.90;18.05;;;5.30;81.60;;;;;;5025323;28;20064;-61
2021/03/31 05:20:00;;;;;;;28.75;19.35;;;5.30;81.40;;;;;;5025420;28;20056;-58
2021/03/31 05:22:34;;;;;;;23.23;20.20;;;5.30;81.50;;;;;;5023588;28;20042;-57
2021/03/31 05:25:05;;;;;;;28.38;21.98;;;5.30;81.60;;;;;;5023496;28;20042;-60
2021/03/31 05:27:37;;;;;;;26.23;19.67;;;5.40;81.60;;;;;;5023364;28;20064;-48
2021/03/31 05:30:06;;;;;;;;;;;5.40;81.00;;;;;;5027228;28;20049;-55
2021/03/31 05:32:33;;;;;;;26.98;19.98;;;5.40;81.80;;;;;;5029014;28;20391;-57
2021/03/31 05:35:00;;;;;;;26.60;20.58;;;5.50;81.80;;;;;;5020380;28;20052;-56
2021/03/31 05:37:27;;;;;;;30.40;20.35;;;5.50;81.20;;;;;;5024388;28;20144;-57
2021/03/31 05:39:56;;;;;;;27.45;19.88;;;5.50;81.40;;;;;;5021235;28;20065;-56
2021/03/31 05:42:42;;;;;;;26.75;20.35;;;5.60;81.40;;;;;;5013524;28;20097;-57
2021/03/31 05:45:11;;;;;;;26.95;20.50;;;5.60;81.20;;;;;;5007422;28;20509;-56
2021/03/31 05:47:42;;;;;;;26.48;19.88;;;5.70;81.30;;;;;;5005764;28;20050;-57
2021/03/31 05:50:12;;;;;;;25.27;19.10;;;5.70;80.70;;;;;;5025739;28;20107;-57
2021/03/31 05:52:46;;;;;;;28.37;21.30;;;5.80;80.40;;;;;;5026324;28;20525;-59
2021/03/31 05:55:15;;;;;;;26.67;19.10;;;5.90;80.40;;;;;;5025034;28;20037;-57
2021/03/31 05:57:44;;;;;;;24.42;19.63;;;6.00;80.50;;;;;;5025510;28;20064;-55
2021/03/31 06:00:14;;;;;;;28.30;19.35;;;6.10;80.40;;;;;;5025366;28;20375;-56
2021/03/31 06:02:41;;;;;;;22.98;18.73;;;6.10;80.60;;;;;;5014328;28;20057;-52
2021/03/31 06:05:12;;;;;;;24.65;18.45;;;6.10;81.10;;;;;;5027006;28;20155;-57
2021/03/31 06:07:46;;;;;;;24.40;17.65;;;6.20;81.30;;;;;;5027418;28;20064;-53
2021/03/31 06:10:18;;;;;;;24.13;19.00;;;6.40;81.10;;;;;;5014695;28;20060;-59
2021/03/31 06:12:59;;;;;;;;;;;6.60;81.00;;;;;;5022399;28;20057;-61
2021/03/31 06:15:32;;;;;;;23.65;18.85;;;6.70;78.60;;;;;;5028161;28;19932;-58
2021/03/31 06:18:11;;;;;;;31.25;20.73;;;6.80;81.00;;;;;;5035766;28;20048;-59
2021/03/31 06:20:49;;;;;;;29.48;19.85;;;7.10;81.00;;;;;;5031774;28;20049;-59
2021/03/31 06:26:29;;;;;;;25.25;20.45;;;7.60;80.70;;;;;;5029559;28;20096;-59
2021/03/31 06:29:04;;;;;;;25.27;19.60;;;7.90;79.00;;;;;;5029439;28;20056;-59
2021/03/31 06:31:35;;;;;;;23.73;19.20;;;8.10;79.00;;;;;;5014950;28;20592;-58
2021/03/31 06:34:07;;;;;;;26.67;20.25;;;8.50;78.70;;;;;;5024235;28;20054;-59
2021/03/31 06:36:40;;;;;;;;;;;8.60;77.70;;;;;;5012251;28;20057;-59
2021/03/31 06:39:36;;;;;;;25.88;20.48;;;8.80;73.30;;;;;;5030097;28;19925;-58
2021/03/31 06:42:17;;;;;;;26.27;19.63;;;9.10;76.00;;;;;;4947047;28;20491;-57
2021/03/31 06:49:38;;;;;;;26.60;19.45;;;10.20;73.20;;;;;;4946269;28;20149;-58
2021/03/31 06:52:08;;;;;;;23.77;20.17;;;10.50;71.50;;;;;;4944767;28;20051;-58
2021/03/31 06:54:48;;;;;;;27.30;19.42;;;10.80;70.50;;;;;;4945903;28;20059;-59
2021/03/31 06:57:27;;;;;;;28.30;20.65;;;11.20;67.90;;;;;;4947617;28;20207;-59
2021/03/31 07:00:09;;;;;;;25.63;19.30;;;11.50;66.40;;;;;;4946414;29;20055;-57
2021/03/31 07:02:42;;;;;;;25.38;20.00;;;11.70;66.50;;;;;;4946644;28;20121;-58
2021/03/31 07:05:09;;;;;;;26.88;20.67;;;12.00;66.00;;;;;;4946979;28;20055;-59
2021/03/31 07:07:41;;;;;;;29.65;20.92;;;12.30;63.90;;;;;;4947365;29;20151;-58
2021/03/31 07:10:14;;;;;;;26.35;20.00;;;12.60;63.00;;;;;;4944794;28;20402;-59
2021/03/31 07:12:53;;;;;;;27.42;20.90;;;12.90;62.40;;;;;;4942768;28;20115;-59
2021/03/31 07:15:21;;;;;;;29.30;19.33;;;13.30;60.60;;;;;;4936299;28;20055;-59
2021/03/31 07:17:53;;;;;;;24.67;19.38;;;13.70;60.60;;;;;;4954588;28;20050;-59
2021/03/31 07:20:20;;;;;;;25.50;19.60;;;14.00;59.30;;;;;;5019345;28;20523;-59
2021/03/31 07:22:46;;;;;;;28.45;20.38;;;14.30;58.30;;;;;;5027047;28;20060;-59
2021/03/31 07:25:15;;;;;;;29.40;21.00;;;14.70;56.80;;;;;;5026987;28;20053;-59
2021/03/31 07:27:45;;;;;;;23.85;19.00;;;15.00;55.70;;;;;;5028327;28;20053;-58
2021/03/31 07:30:15;;;;;;;27.63;20.73;;;15.50;55.50;;;;;;5026474;28;20045;-58
2021/03/31 07:32:54;;;;;;;29.55;21.92;;;15.80;54.40;;;;;;5022058;28;20058;-58
2021/03/31 07:35:29;;;;;;;24.60;19.20;;;16.10;53.50;;;;;;5027190;28;20119;-58
2021/03/31 07:38:00;;;;;;;27.02;19.65;;;16.10;52.60;;;;;;5023104;28;20136;-59
2021/03/31 07:40:26;;;;;;;25.52;19.85;;;16.50;51.60;;;;;;5026421;28;20079;-58
2021/03/31 07:43:04;;;;;;;24.77;19.38;;;16.70;51.80;;;;;;5027578;28;20100;-58
2021/03/31 07:45:43;;;;;;;26.83;19.95;;;16.70;49.00;;;;;;5027998;28;20050;-51
2021/03/31 07:48:10;;;;;;;54.58;45.30;;;16.90;49.40;;;;;;5027888;28;20584;-54
2021/03/31 07:50:36;;;;;;;36.35;31.27;;;17.30;49.00;;;;;;5028042;28;20068;-53
2021/03/31 07:53:04;;;;;;;30.73;25.55;;;17.70;48.70;;;;;;5028791;28;20056;-51
2021/03/31 07:55:32;;;;;;;48.72;43.08;;;18.10;49.00;;;;;;5028812;28;20077;-54
2021/03/31 07:58:16;;;;;;;28.10;21.02;;;18.00;48.00;;;;;;5029823;28;20053;-54
2021/03/31 08:00:48;;;;;;;26.52;21.83;;;18.10;46.50;;;;;;5027067;28;20448;-53
2021/03/31 08:03:20;;;;;;;26.60;21.77;;;18.40;47.70;;;;;;5011394;28;20061;-54
2021/03/31 08:06:10;;;;;;;28.88;23.73;;;18.40;47.30;;;;;;5038324;28;20041;-54
2021/03/31 08:08:52;;;;;;;25.27;22.38;;;18.70;44.60;;;;;;5018294;28;20199;-53
2021/03/31 08:11:36;;;;;;;39.10;33.78;;;18.90;47.60;;;;;;5027397;28;20084;-54
2021/03/31 08:14:08;;;;;;;26.08;22.35;;;19.40;45.20;;;;;;5034043;28;20545;-50
2021/03/31 08:16:41;;;;;;;27.40;20.60;;;19.70;45.60;;;;;;5028290;28;20041;-52
2021/03/31 08:19:22;;;;;;;26.48;20.33;;;20.10;44.70;;;;;;5026962;28;20052;-49
2021/03/31 08:21:52;;;;;;;29.25;21.88;;;20.40;43.50;;;;;;5015600;28;20110;-51
2021/03/31 08:24:39;;;;;;;22.98;20.15;;;20.50;44.10;;;;;;5016069;28;20057;-50
2021/03/31 08:27:08;;;;;;;28.45;21.98;;;20.50;43.90;;;;;;5025779;28;20057;-49
2021/03/31 08:29:36;;;;;;;22.00;19.35;;;20.90;42.50;;;;;;5026910;28;20049;-48
2021/03/31 08:32:08;;;;;;;25.02;19.67;;;21.00;42.00;;;;;;5027491;28;20050;-51
2021/03/31 08:34:35;;;;;;;24.73;19.75;;;20.90;40.80;;;;;;5026330;28;20075;-46
2021/03/31 08:37:19;;;;;;;23.10;19.00;;;20.90;42.50;;;;;;5027095;28;20077;-48
2021/03/31 08:39:47;;;;;;;23.45;20.83;;;21.70;40.00;;;;;;5016505;28;20052;-57
2021/03/31 08:42:13;;;;;;;23.48;20.60;;;21.90;40.80;;;;;;5007080;28;20062;-59
2021/03/31 08:44:48;;;;;;;21.80;19.45;;;22.00;39.50;;;;;;5024162;28;20057;-56
2021/03/31 08:47:18;;;;;;;35.40;31.10;;;22.20;39.50;;;;;;5018228;28;20056;-58
2021/03/31 08:50:03;;;;;;;24.35;20.48;;;22.30;38.30;;;;;;5028308;28;20485;-56
2021/03/31 08:52:34;;;;;;;25.48;22.58;;;22.80;37.10;;;;;;5025786;28;20130;-57
2021/03/31 08:55:00;;;;;;;;;;;22.90;37.00;;;;;;5026403;28;20064;-56
2021/03/31 08:57:29;;;;;;;25.17;21.05;;;22.70;34.80;;;;;;5026804;28;20437;-58
2021/03/31 08:59:58;;;;;;;26.17;22.05;;;23.10;37.20;;;;;;5026062;28;20521;-56
2021/03/31 09:02:41;;;;;;;23.00;20.33;;;23.20;36.00;;;;;;5025192;28;20061;-58
2021/03/31 09:05:10;;;;;;;;;;;23.30;35.30;;;;;;5026829;28;20300;-52
2021/03/31 09:07:38;;;;;;;25.88;21.13;;;23.40;35.20;;;;;;5016526;28;20071;-57
2021/03/31 09:10:13;;;;;;;34.35;29.00;;;23.40;35.80;;;;;;5025921;28;20061;-56
2021/03/31 09:12:39;;;;;;;25.15;22.45;;;23.40;35.10;;;;;;5008599;28;20184;-57
2021/03/31 09:15:09;;;;;;;31.75;28.23;;;23.50;34.40;;;;;;5027576;28;20057;-58
2021/03/31 09:17:41;;;;;;;31.38;24.95;;;23.50;35.50;;;;;;5025565;28;20064;-60
2021/03/31 09:20:09;;;;;;;43.85;39.05;;;24.00;34.30;;;;;;5026121;28;20413;-57
2021/03/31 09:22:38;;;;;;;25.83;22.85;;;23.90;35.10;;;;;;5007783;28;20110;-58
2021/03/31 09:25:10;;;;;;;25.70;21.35;;;24.30;34.40;;;;;;5009062;28;20055;-59
2021/03/31 09:27:38;;;;;;;29.85;21.25;;;24.80;33.40;;;;;;5026316;28;20098;-58
2021/03/31 09:30:13;;;;;;;24.20;21.45;;;24.30;33.70;;;;;;5026865;28;20164;-56
2021/03/31 09:32:52;;;;;;;24.67;21.67;;;24.60;34.20;;;;;;5027221;28;20136;-57
2021/03/31 09:35:19;;;;;;;29.92;22.95;;;24.80;33.00;;;;;;5024847;28;20698;-59
2021/03/31 09:37:53;;;;;;;23.98;21.05;;;24.70;33.40;;;;;;5018234;28;20064;-58
2021/03/31 09:40:22;;;;;;;39.80;33.65;;;24.70;33.40;;;;;;5032164;28;20125;-57
2021/03/31 09:43:03;;;;;;;25.30;22.60;;;24.90;34.00;;;;;;5009758;28;20057;-58
2021/03/31 09:45:31;;;;;;;30.25;25.73;;;24.70;32.70;;;;;;5030609;28;20057;-57
2021/03/31 09:48:07;;;;;;;27.65;24.10;;;24.90;33.10;;;;;;5030538;28;20084;-59
2021/03/31 09:50:35;;;;;;;38.17;34.45;;;25.60;32.60;;;;;;5031242;28;20053;-56
2021/03/31 09:53:05;;;;;;;26.75;23.75;;;25.50;33.30;;;;;;5030893;28;20064;-59
2021/03/31 09:55:31;;;;;;;26.13;23.48;;;26.20;33.00;;;;;;5041954;28;20509;-57
2021/03/31 09:57:58;;;;;;;25.23;21.95;;;26.00;32.50;;;;;;5052907;28;20045;-57
2021/03/31 10:00:33;;;;;;;25.92;23.20;;;26.20;32.30;;;;;;5049267;28;20825;-59
2021/03/31 10:03:05;;;;;;;29.65;24.60;;;26.60;31.70;;;;;;5029749;28;20056;-58
2021/03/31 10:05:31;;;;;;;25.63;22.63;;;26.70;31.10;;;;;;5029678;28;20068;-59
2021/03/31 10:08:21;;;;;;;30.35;24.70;;;26.90;30.80;;;;;;5031346;28;20128;-59
2021/03/31 10:10:56;;;;;;;25.67;22.85;;;27.10;30.90;;;;;;5030137;28;20498;-57
2021/03/31 10:13:27;;;;;;;26.05;23.25;;;27.10;31.40;;;;;;5028872;28;20583;-57
2021/03/31 10:15:58;;;;;;;27.15;22.17;;;27.20;31.00;;;;;;5029730;28;20052;-56
2021/03/31 10:18:32;;;;;;;25.88;23.10;;;27.60;30.90;;;;;;5030080;28;20053;-57
2021/03/31 10:21:05;;;;;;;25.70;23.10;;;27.20;31.10;;;;;;5033456;28;20459;-59
2021/03/31 10:23:36;;;;;;;27.50;23.42;;;27.40;30.20;;;;;;5031235;28;20118;-53
2021/03/31 10:26:22;;;;;;;28.20;25.40;;;27.30;31.30;;;;;;5031933;28;20409;-56
2021/03/31 10:28:49;;;;;;;27.05;24.05;;;27.90;30.00;;;;;;5028575;28;20083;-53
2021/03/31 10:31:23;;;;;;;29.55;25.05;;;27.40;30.40;;;;;;5027169;28;20099;-58
2021/03/31 10:33:52;;;;;;;40.30;36.30;;;27.30;31.00;;;;;;5026096;28;20925;-56
2021/03/31 10:48:34;;;;;;;26.95;23.77;;;28.50;30.00;;;;;;5028407;28;20391;-58
2021/03/31 10:51:09;;;;;;;28.00;24.60;;;28.40;29.50;;;;;;5028585;28;20054;-58
2021/03/31 10:53:51;;;;;;;25.77;23.02;;;28.50;29.60;;;;;;5031560;28;20151;-58
2021/03/31 10:56:20;;;;;;;26.90;24.00;;;28.60;30.20;;;;;;5028539;28;20053;-57
2021/03/31 10:58:46;;;;;;;28.45;24.63;;;28.90;29.70;;;;;;5027940;28;20053;-56
2021/03/31 11:01:12;;;;;;;28.30;23.77;;;28.70;30.30;;;;;;5027920;28;20512;-57
2021/03/31 11:03:41;;;;;;;27.83;25.13;;;29.20;29.90;;;;;;5027843;28;20053;-57
2021/03/31 11:06:07;;;;;;;32.60;29.30;;;29.50;30.00;;;;;;5030153;28;20483;-58
2021/03/31 11:08:33;;;;;;;31.02;27.83;;;29.30;30.60;;;;;;5027712;28;20045;-54
2021/03/31 11:10:59;;;;;;;27.67;24.70;;;29.20;31.00;;;;;;5028083;28;20060;-57
2021/03/31 11:13:25;;;;;;;26.45;23.60;;;29.60;29.70;;;;;;5010304;28;20049;-45
2021/03/31 11:15:54;;;;;;;26.65;24.15;;;29.50;29.60;;;;;;5026360;28;20072;-45
2021/03/31 11:18:35;;;;;;;27.00;24.17;;;29.90;29.10;;;;;;5008768;28;20060;-47
2021/03/31 11:21:13;;;;;;;27.00;23.40;;;29.80;28.90;;;;;;5026880;28;20049;-47
2021/03/31 11:26:49;;;;;;;26.50;23.70;;;29.70;29.10;;;;;;5010382;28;20053;-46
2021/03/31 11:29:22;;;;;;;27.38;24.42;;;30.10;29.30;;;;;;5026153;28;20108;-48
2021/03/31 11:31:48;;;;;;;27.17;24.27;;;30.40;28.60;;;;;;5026007;28;20506;-47
2021/03/31 11:34:16;;;;;;;27.73;24.30;;;30.10;29.20;;;;;;5024545;28;20471;-47
2021/03/31 11:36:45;;;;;;;26.92;24.05;;;30.10;28.70;;;;;;5026017;28;20053;-45
2021/03/31 11:39:15;;;;;;;28.65;25.60;;;30.10;29.00;;;;;;5025242;28;20076;-46
2021/03/31 11:41:44;;;;;;;27.27;24.38;;;30.50;28.60;;;;;;5026259;28;20053;-44
2021/03/31 11:44:10;;;;;;;28.92;25.98;;;30.70;28.50;;;;;;5007269;28;20478;-47
2021/03/31 11:46:38;;;;;;;28.38;25.40;;;30.20;28.40;;;;;;5025823;28;20053;-48
2021/03/31 11:49:04;;;;;;;26.50;23.70;;;30.40;28.90;;;;;;5025114;28;20497;-49
2021/03/31 11:51:32;;;;;;;32.92;29.42;;;30.90;27.20;;;;;;5025702;28;20387;-53
2021/03/31 11:54:18;;;;;;;33.35;29.75;;;30.40;27.50;;;;;;4993429;28;20054;-54
2021/03/31 11:57:04;;;;;;;32.47;28.52;;;29.80;26.60;;;;;;5006274;28;20553;-53
2021/03/31 11:59:53;;;;;;;32.25;27.33;;;30.00;27.30;;;;;;5013531;28;20053;-50
2021/03/31 12:02:39;;;;;;;27.90;24.92;;;30.10;27.00;;;;;;5012602;28;20069;-51
2021/03/31 12:05:06;;;;;;;29.38;26.35;;;30.10;26.80;;;;;;5025435;28;20057;-52
2021/03/31 12:07:56;;;;;;;26.67;23.80;;;30.20;26.60;;;;;;5003259;28;20060;-48
2021/03/31 12:10:22;;;;;;;28.60;25.58;;;30.50;26.70;;;;;;5024288;28;20049;-51
2021/03/31 12:13:08;;;;;;;36.22;32.40;;;30.70;26.20;;;;;;5012108;28;20592;-48
2021/03/31 12:15:54;;;;;;;29.77;25.30;;;30.80;25.70;;;;;;5011467;28;20056;-51
2021/03/31 12:18:20;;;;;;;29.67;26.67;;;30.90;25.60;;;;;;5026782;28;20049;-47
2021/03/31 12:20:45;;;;;;;28.33;24.98;;;30.90;26.00;;;;;;5026698;28;20406;-46
2021/03/31 12:23:11;;;;;;;28.02;25.05;;;31.00;26.00;;;;;;5029084;28;20119;-48
2021/03/31 12:25:59;;;;;;;27.52;24.60;;;30.90;26.50;;;;;;5011180;28;20570;-48
2021/03/31 12:28:28;;;;;;;27.35;24.10;;;31.20;25.70;;;;;;5026077;28;20127;-49
2021/03/31 12:30:57;;;;;;;25.33;22.77;;;31.30;24.00;;;;;;5032953;28;20409;-49
2021/03/31 12:33:23;;;;;;;27.60;23.90;;;31.40;24.60;;;;;;5018513;28;20446;-56
2021/03/31 12:35:49;;;;;;;25.73;23.02;;;31.20;24.80;;;;;;5012462;28;20060;-56
2021/03/31 12:38:15;;;;;;;26.40;23.83;;;31.30;24.60;;;;;;5024462;28;20076;-55
2021/03/31 12:41:03;;;;;;;32.53;27.25;;;31.30;23.60;;;;;;5011357;28;20741;-53
2021/03/31 12:43:30;;;;;;;23.23;20.48;;;30.80;24.60;;;;;;5024507;28;20067;-56
2021/03/31 12:46:00;;;;;;;24.98;21.73;;;31.60;24.50;;;;;;5027440;28;20049;-53
2021/03/31 12:48:28;;;;;;;25.77;23.27;;;31.50;24.20;;;;;;5024478;28;20056;-53
2021/03/31 12:51:01;;;;;;;26.77;23.88;;;31.50;24.50;;;;;;5025850;28;20080;-53
2021/03/31 12:56:31;;;;;;;25.60;22.65;;;31.50;25.10;;;;;;4941888;29;20103;-50
2021/03/31 12:59:01;;;;;;;21.50;17.60;;;31.90;24.50;;;;;;4942651;28;20538;-52
2021/03/31 13:01:30;;;;;;;20.35;18.17;;;32.00;23.00;;;;;;4949520;28;20047;-51
2021/03/31 13:04:21;;;;;;;29.30;23.65;;;32.30;23.60;;;;;;4930240;29;20054;-49
2021/03/31 13:07:10;;;;;;;;;;;32.20;23.40;;;;;;4935338;28;20058;-50
2021/03/31 13:09:59;;;;;;;36.85;32.90;;;32.10;22.90;;;;;;4927116;29;19934;-51
2021/03/31 13:12:34;;;;;;;35.17;29.92;;;32.00;23.30;;;;;;4943439;28;20234;-49
2021/03/31 13:23:40;;;;;;;23.85;21.27;;;31.50;22.70;;;;;;4944351;28;20054;-46
2021/03/31 13:31:17;;;;;;;19.92;17.83;;;31.50;21.60;;;;;;5001525;28;20077;-50
2021/03/31 13:33:50;;;;;;;22.42;19.50;;;30.80;21.90;;;;;;5025853;28;20164;-47
2021/03/31 13:36:56;;;;;;;22.35;19.75;;;30.80;21.90;;;;;;5028920;28;20820;-44
2021/03/31 13:39:12;;;;;;;23.95;20.90;;;30.80;22.20;;;;;;5022875;28;20413;-46
2021/03/31 13:41:38;;;;;;;24.00;20.85;;;30.80;22.60;;;;;;5025611;28;20049;-43
2021/03/31 13:44:25;;;;;;;24.70;21.05;;;31.00;22.20;;;;;;5010963;28;20049;-45